This is the latest recevied weather packets stored in our database for station/object OE-11331. If no packets are shown the sender has not sent any weather packets the latest 10 day(s).
| Time | Temp. | Humidity | Pressure | Rain* | Wind** | Luminosity | Snow |
|---|---|---|---|---|---|---|---|
| 1787828134 | 26.11° C | 58% | 1015.6 hPa | 0 mm | - | 703 W/m² | - |
| 1787827306 | 25.56° C | 58% | 1015.8 hPa | 0 mm | - | 552 W/m² | - |
| 1787826933 | 26.11° C | 58% | 1015.7 hPa | 0 mm | - | 693 W/m² | - |
| 1787826334 | 25.56° C | 58% | 1016 hPa | 0 mm | - | 671 W/m² | - |
| 1787825507 | 25° C | 59% | 1016.3 hPa | 0 mm | - | 639 W/m² | - |
| 1787825134 | 25.56° C | 62% | 1016.2 hPa | 0 mm | - | 617 W/m² | - |
| 1787824534 | 24.44° C | 62% | 1016.3 hPa | 0 mm | - | 422 W/m² | - |
| 1787823707 | 25° C | 63% | 1016.2 hPa | 0 mm | - | 649 W/m² | - |
| 1787823334 | 24.44° C | 64% | 1016.5 hPa | 0 mm | - | 465 W/m² | - |
| 1787822733 | 23.89° C | 64% | 1016.6 hPa | 0 mm | - | 498 W/m² | - |
| 1787821907 | 23.89° C | 65% | 1016.6 hPa | 0 mm | - | 520 W/m² | - |
| 1787821533 | 23.89° C | 64% | 1016.5 hPa | 0 mm | - | 563 W/m² | - |
| 1787820934 | 22.78° C | 66% | 1016.7 hPa | 0 mm | - | 336 W/m² | - |
| 1787820107 | 22.78° C | 66% | 1016.7 hPa | 0 mm | - | 422 W/m² | - |
| 1787819734 | 23.33° C | 67% | 1016.8 hPa | 0 mm | - | 563 W/m² | - |
| 1787819134 | 22.78° C | 68% | 1016.8 hPa | 0 mm | - | 574 W/m² | - |
| 1787818307 | 22.22° C | 70% | 1017 hPa | 0 mm | - | 552 W/m² | - |
| 1787817933 | 22.22° C | 71% | 1017 hPa | 0 mm | - | 476 W/m² | - |
| 1787817333 | 21.67° C | 74% | 1017.2 hPa | 0 mm | - | 444 W/m² | - |
| 1787816506 | 21.67° C | 72% | 1017.2 hPa | 0 mm | - | 444 W/m² | - |
| 1787816133 | 21.11° C | 73% | 1017.2 hPa | 0 mm | - | 444 W/m² | - |
| 1787815528 | 21.11° C | 74% | 1017.4 hPa | 0 mm | - | 411 W/m² | - |
| 1787814707 | 20.56° C | 77% | 1017.6 hPa | 0 mm | - | 400 W/m² | - |
| 1787814334 | 20° C | 77% | 1017.9 hPa | 0 mm | - | 368 W/m² | - |
| 1787813734 | 19.44° C | 78% | 1017.9 hPa | 0 mm | - | 336 W/m² | - |
* Rain latest hour (hover to see other rain measurements)
** Current wind speed in m/s (hover to see current wind gust speed)